Time,TemperatureF,DewpointF,PressureIn,WindDirection,WindDirectionDegrees,WindSpeedMPH,WindSpeedGustMPH,Humidity,HourlyPrecipIn,Conditions,Clouds,dailyrainin,SoftwareType,DateUTC
2013-02-02 00:00:00,24.2,2.8,30.03,East,98,1.7,8.0,47,-99.99,,,-99.99,PWS SA v1.10,2013-02-02 05:00:00,
2013-02-02 00:05:00,24.1,3.3,30.04,NNW,333,1.7,6.0,48,-99.99,,,-99.99,PWS SA v1.10,2013-02-02 05:05:00,
2013-02-02 00:15:00,24.2,3.8,30.04,WNW,282,3.4,5.0,49,-99.99,,,-99.99,PWS SA v1.10,2013-02-02 05:15:00,
2013-02-02 00:20:00,24.4,3.4,30.04,North,0,0.0,5.0,48,-99.99,,,-99.99,PWS SA v1.10,2013-02-02 05:20:00,
2013-02-02 00:25:00,23.9,4.1,30.03,North,0,0.0,5.0,51,-99.99,,,-99.99,PWS SA v1.10,2013-02-02 05:25:00,
2013-02-02 00:30:00,23.9,4.1,30.03,WSW,251,3.4,3.4,51,-99.99,,,-99.99,PWS SA v1.10,2013-02-02 05:30:00,
2013-02-02 00:35:00,24.0,4.0,30.04,NW,324,5.1,5.1,50,-99.99,,,-99.99,PWS SA v1.10,2013-02-02 05:35:00,
2013-02-02 00:40:00,24.3,4.5,30.04,North,0,0.0,5.0,51,-99.99,,,-99.99,PWS SA v1.10,2013-02-02 05:40:00,
2013-02-02 00:45:00,24.0,3.9,30.04,WNW,287,1.7,5.0,50,-99.99,,,-99.99,PWS SA v1.10,2013-02-02 05:45:00,
2013-02-02 00:50:00,23.5,4.0,30.04,SSE,148,3.4,3.4,51,-99.99,,,-99.99,PWS SA v1.10,2013-02-02 05:50:00,
2013-02-02 00:55:00,23.6,4.4,30.04,WNW,293,5.1,5.1,52,-99.99,,,-99.99,PWS SA v1.10,2013-02-02 05:55:00,
2013-02-02 01:00:00,23.9,4.1,30.05,North,0,0.0,5.0,51,-99.99,,,-99.99,PWS SA v1.10,2013-02-02 06:00:00,
2013-02-02 01:05:00,23.9,5.5,30.05,West,271,1.7,6.0,54,-99.99,,,-99.99,PWS SA v1.10,2013-02-02 06:05:00,
2013-02-02 01:10:00,23.7,5.4,30.05,West,278,3.4,6.0,54,-99.99,,,-99.99,PWS SA v1.10,2013-02-02 06:10:00,
2013-02-02 01:15:00,23.6,5.3,30.05,North,0,0.0,6.0,54,-99.99,,,-99.99,PWS SA v1.10,2013-02-02 06:15:00,
2013-02-02 01:20:00,24.0,6.0,30.06,West,280,3.4,6.0,55,-99.99,,,-99.99,PWS SA v1.10,2013-02-02 06:20:00,
2013-02-02 01:25:00,23.7,4.8,30.06,SSW,199,1.7,5.0,53,-99.99,,,-99.99,PWS SA v1.10,2013-02-02 06:25:00,
2013-02-02 01:30:00,24.1,6.0,30.06,WNW,297,1.7,3.0,55,-99.99,,,-99.99,PWS SA v1.10,2013-02-02 06:30:00,
2013-02-02 01:35:00,24.0,5.6,30.06,North,0,0.0,6.0,54,-99.99,,,-99.99,PWS SA v1.10,2013-02-02 06:35:00,
2013-02-02 01:40:00,24.1,6.5,30.07,West,272,1.7,6.0,56,-99.99,,,-99.99,PWS SA v1.10,2013-02-02 06:40:00,
2013-02-02 01:45:00,23.7,6.1,30.07,West,268,1.7,6.0,56,-99.99,,,-99.99,PWS SA v1.10,2013-02-02 06:45:00,
2013-02-02 01:50:00,24.1,6.5,30.07,WSW,257,3.4,3.4,56,-99.99,,,-99.99,PWS SA v1.10,2013-02-02 06:50:00,
2013-02-02 01:55:00,23.9,6.5,30.07,North,0,0.0,3.0,57,-99.99,,,-99.99,PWS SA v1.10,2013-02-02 06:55:00,
2013-02-02 02:00:00,23.6,6.6,30.07,WSW,248,1.7,3.0,57,-99.99,,,-99.99,PWS SA v1.10,2013-02-02 07:00:00,
2013-02-02 02:05:00,23.9,5.9,30.07,WNW,288,1.7,3.0,55,-99.99,,,-99.99,PWS SA v1.10,2013-02-02 07:05:00,
2013-02-02 02:10:00,24.0,6.3,30.07,NNW,333,3.4,3.4,56,-99.99,,,-99.99,PWS SA v1.10,2013-02-02 07:10:00,
2013-02-02 02:15:00,23.7,6.0,30.08,NNW,338,1.7,6.0,56,-99.99,,,-99.99,PWS SA v1.10,2013-02-02 07:15:00,
2013-02-02 02:20:00,23.8,6.5,30.08,NW,313,1.7,10.0,57,-99.99,,,-99.99,PWS SA v1.10,2013-02-02 07:20:00,
2013-02-02 02:25:00,23.7,6.6,30.08,SW,234,5.1,10.0,57,-99.99,,,-99.99,PWS SA v1.10,2013-02-02 07:25:00,
2013-02-02 02:30:00,23.7,6.3,30.09,WNW,301,1.7,10.0,56,-99.99,,,-99.99,PWS SA v1.10,2013-02-02 07:30:00,
2013-02-02 02:35:00,23.6,6.0,30.08,West,264,3.4,6.0,56,-99.99,,,-99.99,PWS SA v1.10,2013-02-02 07:35:00,
2013-02-02 02:40:00,23.5,5.4,30.08,North,0,0.0,5.0,55,-99.99,,,-99.99,PWS SA v1.10,2013-02-02 07:40:00,
2013-02-02 02:45:00,23.7,6.2,30.08,West,262,1.7,3.0,56,-99.99,,,-99.99,PWS SA v1.10,2013-02-02 07:45:00,
2013-02-02 02:50:00,23.7,6.2,30.09,NNW,341,3.4,3.4,56,-99.99,,,-99.99,PWS SA v1.10,2013-02-02 07:50:00,
2013-02-02 02:55:00,22.8,4.9,30.09,NW,316,3.4,8.0,55,-99.99,,,-99.99,PWS SA v1.10,2013-02-02 07:55:00,
2013-02-02 03:00:00,23.4,6.6,30.09,NW,317,3.4,8.0,58,-99.99,,,-99.99,PWS SA v1.10,2013-02-02 08:00:00,
2013-02-02 03:10:00,23.1,5.3,30.09,NNW,340,1.7,8.0,55,-99.99,,,-99.99,PWS SA v1.10,2013-02-02 08:10:00,
2013-02-02 03:15:00,22.8,4.6,30.09,NW,306,3.4,8.0,54,-99.99,,,-99.99,PWS SA v1.10,2013-02-02 08:15:00,
2013-02-02 03:20:00,23.0,5.5,30.08,WSW,242,1.7,8.0,56,-99.99,,,-99.99,PWS SA v1.10,2013-02-02 08:20:00,
2013-02-02 03:25:00,23.5,6.0,30.09,North,0,0.0,3.0,56,-99.99,,,-99.99,PWS SA v1.10,2013-02-02 08:25:00,
2013-02-02 03:30:00,23.1,5.1,30.09,NW,314,1.7,6.0,55,-99.99,,,-99.99,PWS SA v1.10,2013-02-02 08:30:00,
2013-02-02 03:35:00,23.1,6.2,30.09,NNW,331,5.1,6.0,58,-99.99,,,-99.99,PWS SA v1.10,2013-02-02 08:35:00,
2013-02-02 03:40:00,22.6,5.4,30.09,West,280,1.7,6.0,57,-99.99,,,-99.99,PWS SA v1.10,2013-02-02 08:40:00,
2013-02-02 03:45:00,23.3,6.0,30.09,North,0,0.0,5.0,57,-99.99,,,-99.99,PWS SA v1.10,2013-02-02 08:45:00,
2013-02-02 03:55:00,22.7,5.6,30.10,North,0,0.0,6.0,57,-99.99,,,-99.99,PWS SA v1.10,2013-02-02 08:55:00,
2013-02-02 04:00:00,22.7,5.4,30.10,North,0,0.0,6.0,57,-99.99,,,-99.99,PWS SA v1.10,2013-02-02 09:00:00,
2013-02-02 04:10:00,22.2,4.8,30.11,North,0,0.0,3.0,56,-99.99,,,-99.99,PWS SA v1.10,2013-02-02 09:10:00,
2013-02-02 04:15:00,22.6,6.3,30.11,West,262,3.4,3.4,59,-99.99,,,-99.99,PWS SA v1.10,2013-02-02 09:15:00,
2013-02-02 04:20:00,23.0,6.8,30.11,North,0,0.0,3.0,59,-99.99,,,-99.99,PWS SA v1.10,2013-02-02 09:20:00,
2013-02-02 04:25:00,23.0,6.3,30.12,North,0,0.0,3.0,58,-99.99,,,-99.99,PWS SA v1.10,2013-02-02 09:25:00,
2013-02-02 04:30:00,22.8,6.0,30.12,North,0,0.0,0.0,58,-99.99,,,-99.99,PWS SA v1.10,2013-02-02 09:30:00,
2013-02-02 04:35:00,22.9,6.7,30.12,WSW,251,1.7,1.7,60,-99.99,,,-99.99,PWS SA v1.10,2013-02-02 09:35:00,
2013-02-02 04:40:00,22.2,4.9,30.12,North,358,1.7,3.0,57,-99.99,,,-99.99,PWS SA v1.10,2013-02-02 09:40:00,
2013-02-02 04:45:00,22.2,5.0,30.12,NW,318,1.7,3.0,57,-99.99,,,-99.99,PWS SA v1.10,2013-02-02 09:45:00,
2013-02-02 04:50:00,22.3,5.2,30.13,WNW,282,1.7,3.0,57,-99.99,,,-99.99,PWS SA v1.10,2013-02-02 09:50:00,
2013-02-02 04:55:00,22.3,5.0,30.13,North,0,0.0,3.0,57,-99.99,,,-99.99,PWS SA v1.10,2013-02-02 09:55:00,
2013-02-02 05:00:00,22.6,5.3,30.13,NW,311,1.7,3.0,57,-99.99,,,-99.99,PWS SA v1.10,2013-02-02 10:00:00,
2013-02-02 05:05:00,22.6,4.5,30.14,North,0,0.0,1.0,55,-99.99,,,-99.99,PWS SA v1.10,2013-02-02 10:05:00,
2013-02-02 05:10:00,22.8,5.0,30.14,North,0,0.0,1.0,55,-99.99,,,-99.99,PWS SA v1.10,2013-02-02 10:10:00,
2013-02-02 05:15:00,21.7,3.9,30.14,NW,323,1.7,5.0,55,-99.99,,,-99.99,PWS SA v1.10,2013-02-02 10:15:00,
2013-02-02 05:20:00,21.9,4.1,30.14,NNW,335,1.7,5.0,55,-99.99,,,-99.99,PWS SA v1.10,2013-02-02 10:20:00,
2013-02-02 05:25:00,21.3,3.1,30.14,North,0,0.0,5.0,54,-99.99,,,-99.99,PWS SA v1.10,2013-02-02 10:25:00,
2013-02-02 05:30:00,21.7,4.0,30.14,North,0,0.0,5.0,55,-99.99,,,-99.99,PWS SA v1.10,2013-02-02 10:30:00,
2013-02-02 05:35:00,21.9,3.8,30.13,NW,322,1.7,5.0,54,-99.99,,,-99.99,PWS SA v1.10,2013-02-02 10:35:00,
2013-02-02 05:40:00,22.1,3.7,30.14,North,0,0.0,5.0,54,-99.99,,,-99.99,PWS SA v1.10,2013-02-02 10:40:00,
2013-02-02 05:45:00,21.9,3.8,30.14,North,0,0.0,3.0,55,-99.99,,,-99.99,PWS SA v1.10,2013-02-02 10:45:00,
2013-02-02 05:50:00,21.9,4.0,30.14,North,0,0.0,0.0,55,-99.99,,,-99.99,PWS SA v1.10,2013-02-02 10:50:00,
2013-02-02 05:55:00,21.5,4.2,30.14,WNW,302,1.7,5.0,56,-99.99,,,-99.99,PWS SA v1.10,2013-02-02 10:55:00,
2013-02-02 06:00:00,21.3,3.8,30.14,North,0,0.0,5.0,56,-99.99,,,-99.99,PWS SA v1.10,2013-02-02 11:00:00,
2013-02-02 06:05:00,21.5,4.2,30.14,North,0,0.0,5.0,56,-99.99,,,-99.99,PWS SA v1.10,2013-02-02 11:05:00,
2013-02-02 06:15:00,21.6,4.5,30.15,North,0,0.0,1.0,57,-99.99,,,-99.99,PWS SA v1.10,2013-02-02 11:15:00,
2013-02-02 06:20:00,21.8,5.0,30.14,North,0,0.0,1.0,58,-99.99,,,-99.99,PWS SA v1.10,2013-02-02 11:20:00,
2013-02-02 06:25:00,21.6,3.7,30.15,North,0,0.0,0.0,55,-99.99,,,-99.99,PWS SA v1.10,2013-02-02 11:25:00,
2013-02-02 06:30:00,21.6,4.3,30.15,North,0,0.0,1.0,56,-99.99,,,-99.99,PWS SA v1.10,2013-02-02 11:30:00,
2013-02-02 06:35:00,21.6,3.5,30.15,North,0,0.0,1.0,54,-99.99,,,-99.99,PWS SA v1.10,2013-02-02 11:35:00,
2013-02-02 06:40:00,21.5,4.2,30.15,North,0,0.0,1.0,56,-99.99,,,-99.99,PWS SA v1.10,2013-02-02 11:40:00,
2013-02-02 06:45:00,21.7,4.1,30.15,North,0,0.0,1.0,56,-99.99,,,-99.99,PWS SA v1.10,2013-02-02 11:45:00,
2013-02-02 06:50:00,21.3,3.7,30.15,North,0,0.0,1.0,56,-99.99,,,-99.99,PWS SA v1.10,2013-02-02 11:50:00,
2013-02-02 06:55:00,21.7,4.9,30.16,North,0,0.0,1.0,58,-99.99,,,-99.99,PWS SA v1.10,2013-02-02 11:55:00,
2013-02-02 07:00:00,21.4,3.3,30.16,North,0,0.0,0.0,54,-99.99,,,-99.99,PWS SA v1.10,2013-02-02 12:00:00,
2013-02-02 07:05:00,21.3,3.6,30.17,North,0,0.0,1.0,55,-99.99,,,-99.99,PWS SA v1.10,2013-02-02 12:05:00,
2013-02-02 07:10:00,21.4,4.1,30.17,North,0,0.0,1.0,56,-99.99,,,-99.99,PWS SA v1.10,2013-02-02 12:10:00,
2013-02-02 07:15:00,21.4,4.5,30.17,North,0,0.0,1.0,57,-99.99,,,-99.99,PWS SA v1.10,2013-02-02 12:15:00,
2013-02-02 07:20:00,21.1,3.3,30.17,North,0,0.0,1.0,55,-99.99,,,-99.99,PWS SA v1.10,2013-02-02 12:20:00,
2013-02-02 07:25:00,21.3,4.3,30.17,North,0,0.0,1.0,57,-99.99,,,-99.99,PWS SA v1.10,2013-02-02 12:25:00,
2013-02-02 07:30:00,21.4,4.1,30.17,North,0,0.0,3.0,56,-99.99,,,-99.99,PWS SA v1.10,2013-02-02 12:30:00,
2013-02-02 07:35:00,21.7,4.1,30.17,North,0,0.0,3.0,56,-99.99,,,-99.99,PWS SA v1.10,2013-02-02 12:35:00,
2013-02-02 07:40:00,21.0,3.4,30.17,North,0,0.0,3.0,56,-99.99,,,-99.99,PWS SA v1.10,2013-02-02 12:40:00,
2013-02-02 07:45:00,21.6,4.8,30.17,North,0,0.0,1.0,58,-99.99,,,-99.99,PWS SA v1.10,2013-02-02 12:45:00,
2013-02-02 07:50:00,21.9,4.7,30.17,North,0,0.0,1.0,57,-99.99,,,-99.99,PWS SA v1.10,2013-02-02 12:50:00,
2013-02-02 07:55:00,21.6,3.5,30.18,North,0,0.0,3.0,54,-99.99,,,-99.99,PWS SA v1.10,2013-02-02 12:55:00,
2013-02-02 08:00:00,21.8,3.9,30.18,NNW,327,3.4,3.4,55,-99.99,,,-99.99,PWS SA v1.10,2013-02-02 13:00:00,
2013-02-02 08:05:00,21.5,2.6,30.18,North,0,0.0,3.0,52,-99.99,,,-99.99,PWS SA v1.10,2013-02-02 13:05:00,
2013-02-02 08:10:00,21.9,2.6,30.18,NW,312,1.7,3.0,52,-99.99,,,-99.99,PWS SA v1.10,2013-02-02 13:10:00,
2013-02-02 08:15:00,21.7,2.4,30.18,NE,55,1.7,3.0,52,-99.99,,,-99.99,PWS SA v1.10,2013-02-02 13:15:00,
2013-02-02 08:20:00,21.8,3.2,30.18,SW,232,6.8,8.0,53,-99.99,,,-99.99,PWS SA v1.10,2013-02-02 13:20:00,
2013-02-02 08:25:00,22.4,2.8,30.17,North,0,0.0,8.0,51,-99.99,,,-99.99,PWS SA v1.10,2013-02-02 13:25:00,
2013-02-02 08:30:00,22.2,3.0,30.18,NW,307,1.7,8.0,52,-99.99,,,-99.99,PWS SA v1.10,2013-02-02 13:30:00,
2013-02-02 08:40:00,22.4,2.0,30.18,North,350,1.7,5.0,49,-99.99,,,-99.99,PWS SA v1.10,2013-02-02 13:40:00,
2013-02-02 08:45:00,22.6,1.9,30.18,North,0,0.0,5.0,48,-99.99,,,-99.99,PWS SA v1.10,2013-02-02 13:45:00,
2013-02-02 08:55:00,23.0,2.9,30.19,West,265,1.7,3.0,50,-99.99,,,-99.99,PWS SA v1.10,2013-02-02 13:55:00,
2013-02-02 09:05:00,23.1,1.7,30.19,SW,220,3.4,5.0,47,-99.99,,,-99.99,PWS SA v1.10,2013-02-02 14:05:00,
2013-02-02 09:10:00,23.4,2.0,30.19,North,0,0.0,5.0,47,-99.99,,,-99.99,PWS SA v1.10,2013-02-02 14:10:00,
2013-02-02 09:20:00,23.7,2.2,30.20,North,0,0.0,6.0,47,-99.99,,,-99.99,PWS SA v1.10,2013-02-02 14:20:00,
2013-02-02 09:25:00,23.9,1.5,30.20,West,268,3.4,6.0,45,-99.99,,,-99.99,PWS SA v1.10,2013-02-02 14:25:00,
2013-02-02 09:30:00,24.2,1.3,30.19,North,0,0.0,6.0,44,-99.99,,,-99.99,PWS SA v1.10,2013-02-02 14:30:00,
2013-02-02 09:40:00,24.6,0.4,30.19,North,0,0.0,3.0,41,-99.99,,,-99.99,PWS SA v1.10,2013-02-02 14:40:00,
2013-02-02 09:45:00,25.3,1.7,30.19,NNW,329,1.7,3.0,43,-99.99,,,-99.99,PWS SA v1.10,2013-02-02 14:45:00,
2013-02-02 09:50:00,25.5,1.8,30.18,North,0,0.0,5.0,43,-99.99,,,-99.99,PWS SA v1.10,2013-02-02 14:50:00,
2013-02-02 09:55:00,25.0,1.6,30.19,WNW,296,1.7,8.0,43,-99.99,,,-99.99,PWS SA v1.10,2013-02-02 14:55:00,
2013-02-02 10:00:00,25.4,2.9,30.18,NW,315,1.7,8.0,45,-99.99,,,-99.99,PWS SA v1.10,2013-02-02 15:00:00,
2013-02-02 10:05:00,25.7,1.0,30.18,North,362,1.7,8.0,41,-99.99,,,-99.99,PWS SA v1.10,2013-02-02 15:05:00,
2013-02-02 10:10:00,26.2,2.5,30.18,SW,228,10.2,10.2,43,-99.99,,,-99.99,PWS SA v1.10,2013-02-02 15:10:00,
2013-02-02 10:20:00,25.8,1.0,30.18,NNW,329,5.1,10.0,40,-99.99,,,-99.99,PWS SA v1.10,2013-02-02 15:20:00,
2013-02-02 10:30:00,26.6,2.8,30.18,WSW,251,5.1,10.0,43,-99.99,,,-99.99,PWS SA v1.10,2013-02-02 15:30:00,
2013-02-02 10:35:00,26.6,1.8,30.18,NW,322,5.1,10.0,41,-99.99,,,-99.99,PWS SA v1.10,2013-02-02 15:35:00,
2013-02-02 10:40:00,27.3,7.5,30.18,WSW,245,1.7,5.0,42,-99.99,,,-99.99,PWS SA v1.10,2013-02-02 15:40:00,
2013-02-02 10:45:00,27.3,7.0,30.18,SW,217,1.7,6.0,41,-99.99,,,-99.99,PWS SA v1.10,2013-02-02 15:45:00,
2013-02-02 10:50:00,27.8,7.9,30.17,NW,321,1.7,6.0,42,-99.99,,,-99.99,PWS SA v1.10,2013-02-02 15:50:00,
2013-02-02 11:00:00,27.6,7.5,30.17,West,263,1.7,6.0,41,-99.99,,,-99.99,PWS SA v1.10,2013-02-02 16:00:00,
2013-02-02 11:05:00,28.0,7.3,30.16,North,0,0.0,6.0,41,-99.99,,,-99.99,PWS SA v1.10,2013-02-02 16:05:00,
2013-02-02 11:10:00,27.7,7.1,30.16,NNW,329,5.1,6.0,40,-99.99,,,-99.99,PWS SA v1.10,2013-02-02 16:10:00,
2013-02-02 11:20:00,28.3,9.1,30.16,West,268,1.7,5.0,43,-99.99,,,-99.99,PWS SA v1.10,2013-02-02 16:20:00,
2013-02-02 11:25:00,28.6,8.7,30.16,North,0,0.0,5.0,42,-99.99,,,-99.99,PWS SA v1.10,2013-02-02 16:25:00,
2013-02-02 11:35:00,29.2,8.8,30.15,WSW,240,5.1,6.0,41,-99.99,,,-99.99,PWS SA v1.10,2013-02-02 16:35:00,
2013-02-02 11:40:00,29.5,8.9,30.15,NNW,333,3.4,6.0,41,-99.99,,,-99.99,PWS SA v1.10,2013-02-02 16:40:00,
2013-02-02 11:45:00,28.7,8.2,30.14,SW,236,8.5,8.5,41,-99.99,,,-99.99,PWS SA v1.10,2013-02-02 16:45:00,
2013-02-02 11:50:00,28.7,8.8,30.14,NNW,327,5.1,8.0,42,-99.99,,,-99.99,PWS SA v1.10,2013-02-02 16:50:00,
2013-02-02 12:00:00,29.9,9.4,30.13,North,0,0.0,5.0,41,-99.99,,,-99.99,PWS SA v1.10,2013-02-02 17:00:00,
2013-02-02 12:05:00,29.8,9.5,30.13,SSW,210,1.7,5.0,41,-99.99,,,-99.99,PWS SA v1.10,2013-02-02 17:05:00,
2013-02-02 12:10:00,30.3,10.3,30.12,West,272,1.7,5.0,42,-99.99,,,-99.99,PWS SA v1.10,2013-02-02 17:10:00,
2013-02-02 12:15:00,29.8,9.6,30.12,West,265,3.4,6.0,41,-99.99,,,-99.99,PWS SA v1.10,2013-02-02 17:15:00,
2013-02-02 12:20:00,30.2,10.0,30.12,SSW,195,1.7,6.0,42,-99.99,,,-99.99,PWS SA v1.10,2013-02-02 17:20:00,
2013-02-02 12:25:00,29.8,8.8,30.12,SSW,210,8.5,8.5,40,-99.99,,,-99.99,PWS SA v1.10,2013-02-02 17:25:00,
2013-02-02 12:30:00,29.5,8.6,30.12,West,262,6.8,8.0,40,-99.99,,,-99.99,PWS SA v1.10,2013-02-02 17:30:00,
2013-02-02 12:35:00,29.8,8.5,30.11,WSW,240,1.7,8.0,40,-99.99,,,-99.99,PWS SA v1.10,2013-02-02 17:35:00,
2013-02-02 12:45:00,29.8,8.9,30.10,North,0,0.0,8.0,40,-99.99,,,-99.99,PWS SA v1.10,2013-02-02 17:45:00,
2013-02-02 12:50:00,30.8,9.7,30.10,North,0,0.0,8.0,40,-99.99,,,-99.99,PWS SA v1.10,2013-02-02 17:50:00,
2013-02-02 13:00:00,31.0,9.8,30.10,SW,220,1.7,6.0,40,-99.99,,,-99.99,PWS SA v1.10,2013-02-02 18:00:00,
2013-02-02 13:05:00,31.3,10.4,30.10,North,0,0.0,6.0,40,-99.99,,,-99.99,PWS SA v1.10,2013-02-02 18:05:00,
2013-02-02 13:10:00,31.2,10.1,30.09,North,0,0.0,10.0,40,-99.99,,,-99.99,PWS SA v1.10,2013-02-02 18:10:00,
2013-02-02 13:15:00,31.1,10.0,30.09,West,267,5.1,10.0,40,-99.99,,,-99.99,PWS SA v1.10,2013-02-02 18:15:00,
2013-02-02 13:20:00,30.2,9.4,30.08,West,264,5.1,10.0,41,-99.99,,,-99.99,PWS SA v1.10,2013-02-02 18:20:00,
2013-02-02 13:30:00,31.6,10.0,30.08,SW,226,1.7,10.0,40,-99.99,,,-99.99,PWS SA v1.10,2013-02-02 18:30:00,
2013-02-02 13:35:00,32.0,10.6,30.08,West,267,3.4,10.0,40,-99.99,,,-99.99,PWS SA v1.10,2013-02-02 18:35:00,
2013-02-02 13:40:00,31.7,10.3,30.07,West,261,5.1,10.0,40,-99.99,,,-99.99,PWS SA v1.10,2013-02-02 18:40:00,
2013-02-02 13:45:00,31.7,9.8,30.07,WSW,249,1.7,10.0,39,-99.99,,,-99.99,PWS SA v1.10,2013-02-02 18:45:00,
2013-02-02 13:50:00,31.7,10.6,30.07,East,91,1.7,10.0,40,-99.99,,,-99.99,PWS SA v1.10,2013-02-02 18:50:00,
2013-02-02 13:55:00,31.8,10.5,30.07,SSE,158,5.1,6.0,40,-99.99,,,-99.99,PWS SA v1.10,2013-02-02 18:55:00,
2013-02-02 14:05:00,32.8,11.8,30.06,NW,305,1.7,5.0,41,-99.99,,,-99.99,PWS SA v1.10,2013-02-02 19:05:00,
2013-02-02 14:10:00,33.2,12.1,30.06,WSW,248,1.7,5.0,41,-99.99,,,-99.99,PWS SA v1.10,2013-02-02 19:10:00,
2013-02-02 14:15:00,33.5,11.9,30.06,North,0,0.0,5.0,40,-99.99,,,-99.99,PWS SA v1.10,2013-02-02 19:15:00,
2013-02-02 14:25:00,32.5,11.0,30.05,WSW,258,1.7,5.0,40,-99.99,,,-99.99,PWS SA v1.10,2013-02-02 19:25:00,
2013-02-02 14:30:00,32.3,11.2,30.05,NW,316,1.7,5.0,41,-99.99,,,-99.99,PWS SA v1.10,2013-02-02 19:30:00,
2013-02-02 14:35:00,32.1,10.4,30.05,WSW,248,1.7,1.7,40,-99.99,,,-99.99,PWS SA v1.10,2013-02-02 19:35:00,
2013-02-02 14:45:00,32.6,11.1,30.05,West,267,5.1,6.0,40,-99.99,,,-99.99,PWS SA v1.10,2013-02-02 19:45:00,
2013-02-02 14:50:00,32.9,11.5,30.04,WSW,251,1.7,6.0,40,-99.99,,,-99.99,PWS SA v1.10,2013-02-02 19:50:00,
2013-02-02 14:55:00,31.7,9.8,30.04,WSW,257,3.4,6.0,39,-99.99,,,-99.99,PWS SA v1.10,2013-02-02 19:55:00,
2013-02-02 15:00:00,31.8,10.2,30.04,WSW,241,5.1,6.0,40,-99.99,,,-99.99,PWS SA v1.10,2013-02-02 20:00:00,
2013-02-02 15:05:00,31.6,9.1,30.04,SSW,205,5.1,6.0,38,-99.99,,,-99.99,PWS SA v1.10,2013-02-02 20:05:00,
2013-02-02 15:10:00,31.6,9.5,30.04,WSW,248,8.5,8.5,39,-99.99,,,-99.99,PWS SA v1.10,2013-02-02 20:10:00,
2013-02-02 15:15:00,32.0,10.5,30.03,North,0,0.0,8.0,40,-99.99,,,-99.99,PWS SA v1.10,2013-02-02 20:15:00,
2013-02-02 15:20:00,32.1,10.0,30.03,North,0,0.0,8.0,39,-99.99,,,-99.99,PWS SA v1.10,2013-02-02 20:20:00,
2013-02-02 15:25:00,32.0,10.3,30.03,WSW,246,3.4,8.0,39,-99.99,,,-99.99,PWS SA v1.10,2013-02-02 20:25:00,
2013-02-02 15:30:00,31.9,10.5,30.03,SW,216,5.1,6.0,40,-99.99,,,-99.99,PWS SA v1.10,2013-02-02 20:30:00,
2013-02-02 15:35:00,32.5,11.2,30.03,North,0,0.0,6.0,40,-99.99,,,-99.99,PWS SA v1.10,2013-02-02 20:35:00,
2013-02-02 15:40:00,32.2,10.8,30.03,WSW,239,1.7,6.0,40,-99.99,,,-99.99,PWS SA v1.10,2013-02-02 20:40:00,
2013-02-02 15:45:00,31.6,10.8,30.03,West,263,5.1,10.0,41,-99.99,,,-99.99,PWS SA v1.10,2013-02-02 20:45:00,
2013-02-02 15:50:00,31.9,10.3,30.03,SW,231,1.7,10.0,40,-99.99,,,-99.99,PWS SA v1.10,2013-02-02 20:50:00,
2013-02-02 15:55:00,31.5,10.2,30.03,North,0,0.0,10.0,40,-99.99,,,-99.99,PWS SA v1.10,2013-02-02 20:55:00,
2013-02-02 16:00:00,31.6,10.4,30.03,WSW,240,1.7,6.0,40,-99.99,,,-99.99,PWS SA v1.10,2013-02-02 21:00:00,
2013-02-02 16:05:00,32.3,11.1,30.02,North,0,0.0,6.0,41,-99.99,,,-99.99,PWS SA v1.10,2013-02-02 21:05:00,
2013-02-02 16:10:00,32.1,10.8,30.02,West,275,3.4,6.0,41,-99.99,,,-99.99,PWS SA v1.10,2013-02-02 21:10:00,
2013-02-02 16:15:00,31.3,10.2,30.02,North,0,0.0,6.0,41,-99.99,,,-99.99,PWS SA v1.10,2013-02-02 21:15:00,
2013-02-02 16:20:00,31.4,10.3,30.02,ENE,75,1.7,6.0,41,-99.99,,,-99.99,PWS SA v1.10,2013-02-02 21:20:00,
2013-02-02 16:25:00,31.7,11.4,30.02,SSW,201,3.4,6.0,42,-99.99,,,-99.99,PWS SA v1.10,2013-02-02 21:25:00,
2013-02-02 16:30:00,31.1,10.8,30.02,WSW,239,3.4,8.0,42,-99.99,,,-99.99,PWS SA v1.10,2013-02-02 21:30:00,
2013-02-02 16:35:00,31.4,10.2,30.02,West,268,5.1,8.0,41,-99.99,,,-99.99,PWS SA v1.10,2013-02-02 21:35:00,
2013-02-02 16:45:00,31.1,11.2,30.02,WNW,295,1.7,5.0,42,-99.99,,,-99.99,PWS SA v1.10,2013-02-02 21:45:00,
2013-02-02 16:50:00,31.0,10.6,30.02,North,0,0.0,8.0,42,-99.99,,,-99.99,PWS SA v1.10,2013-02-02 21:50:00,
2013-02-02 16:55:00,30.7,10.3,30.02,North,0,0.0,8.0,42,-99.99,,,-99.99,PWS SA v1.10,2013-02-02 21:55:00,
2013-02-02 17:00:00,30.6,10.0,30.01,WSW,238,1.7,8.0,41,-99.99,,,-99.99,PWS SA v1.10,2013-02-02 22:00:00,
2013-02-02 17:05:00,30.9,10.3,30.01,North,0,0.0,5.0,42,-99.99,,,-99.99,PWS SA v1.10,2013-02-02 22:05:00,
2013-02-02 17:10:00,30.9,11.2,30.02,North,0,0.0,5.0,43,-99.99,,,-99.99,PWS SA v1.10,2013-02-02 22:10:00,
2013-02-02 17:15:00,30.9,10.8,30.01,West,270,1.7,5.0,43,-99.99,,,-99.99,PWS SA v1.10,2013-02-02 22:15:00,
2013-02-02 17:20:00,30.7,10.0,30.02,North,0,0.0,5.0,41,-99.99,,,-99.99,PWS SA v1.10,2013-02-02 22:20:00,
2013-02-02 17:25:00,30.4,10.0,30.03,West,272,5.1,8.0,42,-99.99,,,-99.99,PWS SA v1.10,2013-02-02 22:25:00,
2013-02-02 17:30:00,30.4,9.8,30.02,North,0,0.0,8.0,41,-99.99,,,-99.99,PWS SA v1.10,2013-02-02 22:30:00,
2013-02-02 17:35:00,30.5,10.1,30.01,North,0,0.0,8.0,42,-99.99,,,-99.99,PWS SA v1.10,2013-02-02 22:35:00,
2013-02-02 17:40:00,30.4,10.4,30.02,SW,235,1.7,8.0,42,-99.99,,,-99.99,PWS SA v1.10,2013-02-02 22:40:00,
2013-02-02 17:45:00,30.6,11.0,30.02,North,0,0.0,8.0,43,-99.99,,,-99.99,PWS SA v1.10,2013-02-02 22:45:00,
2013-02-02 17:55:00,30.3,11.6,30.02,West,262,5.1,5.1,45,-99.99,,,-99.99,PWS SA v1.10,2013-02-02 22:55:00,
2013-02-02 18:00:00,30.6,11.6,30.02,WSW,237,1.7,5.0,45,-99.99,,,-99.99,PWS SA v1.10,2013-02-02 23:00:00,
2013-02-02 18:05:00,30.7,11.7,30.02,North,0,0.0,5.0,45,-99.99,,,-99.99,PWS SA v1.10,2013-02-02 23:05:00,
2013-02-02 18:10:00,30.4,11.7,30.02,North,0,0.0,3.0,45,-99.99,,,-99.99,PWS SA v1.10,2013-02-02 23:10:00,
2013-02-02 18:20:00,30.1,11.7,30.02,North,0,0.0,1.0,46,-99.99,,,-99.99,PWS SA v1.10,2013-02-02 23:20:00,
2013-02-02 18:25:00,29.6,11.2,30.02,North,0,0.0,1.0,46,-99.99,,,-99.99,PWS SA v1.10,2013-02-02 23:25:00,
2013-02-02 18:35:00,29.9,12.0,30.02,WSW,251,1.7,5.0,47,-99.99,,,-99.99,PWS SA v1.10,2013-02-02 23:35:00,
2013-02-02 18:40:00,29.3,11.4,30.02,WSW,240,3.4,5.0,46,-99.99,,,-99.99,PWS SA v1.10,2013-02-02 23:40:00,
2013-02-02 18:45:00,29.2,11.5,30.02,North,0,0.0,8.0,47,-99.99,,,-99.99,PWS SA v1.10,2013-02-02 23:45:00,
2013-02-02 18:50:00,29.9,12.8,30.02,North,0,0.0,8.0,48,-99.99,,,-99.99,PWS SA v1.10,2013-02-02 23:50:00,
2013-02-02 18:55:00,29.4,12.2,30.02,SSW,209,1.7,8.0,48,-99.99,,,-99.99,PWS SA v1.10,2013-02-02 23:55:00,
2013-02-02 19:05:00,29.9,12.6,30.02,North,0,0.0,8.0,47,-99.99,,,-99.99,PWS SA v1.10,2013-02-03 00:05:00,
2013-02-02 19:10:00,30.1,13.4,30.02,North,0,0.0,8.0,50,-99.99,,,-99.99,PWS SA v1.10,2013-02-03 00:10:00,
2013-02-02 19:15:00,30.0,13.6,30.02,South,182,1.7,3.0,50,-99.99,,,-99.99,PWS SA v1.10,2013-02-03 00:15:00,
2013-02-02 19:25:00,29.6,12.8,30.02,WSW,246,1.7,5.0,49,-99.99,,,-99.99,PWS SA v1.10,2013-02-03 00:25:00,
2013-02-02 19:35:00,30.0,13.2,30.02,North,0,0.0,5.0,50,-99.99,,,-99.99,PWS SA v1.10,2013-02-03 00:35:00,
2013-02-02 19:40:00,29.6,13.2,30.02,South,188,3.4,5.0,50,-99.99,,,-99.99,PWS SA v1.10,2013-02-03 00:40:00,
2013-02-02 19:45:00,29.7,13.9,30.02,North,0,0.0,5.0,52,-99.99,,,-99.99,PWS SA v1.10,2013-02-03 00:45:00,
2013-02-02 19:50:00,29.1,12.7,30.02,ESE,114,1.7,5.0,50,-99.99,,,-99.99,PWS SA v1.10,2013-02-03 00:50:00,
2013-02-02 19:55:00,29.1,13.4,30.01,SW,217,3.4,3.4,51,-99.99,,,-99.99,PWS SA v1.10,2013-02-03 00:55:00,
2013-02-02 20:00:00,29.4,13.9,30.02,North,0,0.0,3.0,52,-99.99,,,-99.99,PWS SA v1.10,2013-02-03 01:00:00,
2013-02-02 20:05:00,29.4,13.7,30.01,WSW,252,1.7,3.0,51,-99.99,,,-99.99,PWS SA v1.10,2013-02-03 01:05:00,
2013-02-02 20:10:00,29.9,14.2,30.01,North,0,0.0,3.0,52,-99.99,,,-99.99,PWS SA v1.10,2013-02-03 01:10:00,
2013-02-02 20:15:00,29.7,13.8,30.01,North,0,0.0,3.0,51,-99.99,,,-99.99,PWS SA v1.10,2013-02-03 01:15:00,
2013-02-02 20:20:00,29.3,13.5,30.01,North,0,0.0,5.0,51,-99.99,,,-99.99,PWS SA v1.10,2013-02-03 01:20:00,
2013-02-02 20:25:00,29.3,14.0,30.01,WSW,251,1.7,5.0,52,-99.99,,,-99.99,PWS SA v1.10,2013-02-03 01:25:00,
2013-02-02 20:35:00,29.5,14.3,30.01,WSW,257,1.7,5.0,52,-99.99,,,-99.99,PWS SA v1.10,2013-02-03 01:35:00,
2013-02-02 20:40:00,29.6,14.5,30.01,West,264,1.7,5.0,53,-99.99,,,-99.99,PWS SA v1.10,2013-02-03 01:40:00,
2013-02-02 20:45:00,29.4,14.3,30.01,WSW,250,1.7,5.0,52,-99.99,,,-99.99,PWS SA v1.10,2013-02-03 01:45:00,
2013-02-02 20:50:00,29.0,13.5,30.01,North,0,0.0,3.0,52,-99.99,,,-99.99,PWS SA v1.10,2013-02-03 01:50:00,
2013-02-02 20:55:00,29.2,14.1,30.01,WSW,243,1.7,3.0,52,-99.99,,,-99.99,PWS SA v1.10,2013-02-03 01:55:00,
2013-02-02 21:00:00,29.5,14.6,30.01,North,0,0.0,3.0,53,-99.99,,,-99.99,PWS SA v1.10,2013-02-03 02:00:00,
2013-02-02 21:05:00,29.6,14.2,30.01,North,0,0.0,3.0,52,-99.99,,,-99.99,PWS SA v1.10,2013-02-03 02:05:00,
2013-02-02 21:15:00,29.2,13.9,30.01,SW,233,1.7,3.0,53,-99.99,,,-99.99,PWS SA v1.10,2013-02-03 02:15:00,
2013-02-02 21:25:00,29.8,14.2,30.01,North,0,0.0,3.0,52,-99.99,,,-99.99,PWS SA v1.10,2013-02-03 02:25:00,
2013-02-02 21:30:00,29.5,15.0,30.02,North,0,0.0,3.0,54,-99.99,,,-99.99,PWS SA v1.10,2013-02-03 02:30:00,
2013-02-02 21:35:00,29.7,14.7,30.01,North,0,0.0,0.0,54,-99.99,,,-99.99,PWS SA v1.10,2013-02-03 02:35:00,
2013-02-02 21:40:00,29.6,15.3,30.01,SW,225,1.7,1.7,55,-99.99,,,-99.99,PWS SA v1.10,2013-02-03 02:40:00,
2013-02-02 21:45:00,29.6,15.6,30.01,North,0,0.0,1.0,56,-99.99,,,-99.99,PWS SA v1.10,2013-02-03 02:45:00,
2013-02-02 21:55:00,29.6,15.9,30.01,North,0,0.0,0.0,57,-99.99,,,-99.99,PWS SA v1.10,2013-02-03 02:55:00,
2013-02-02 22:00:00,29.5,14.9,30.01,North,0,0.0,0.0,54,-99.99,,,-99.99,PWS SA v1.10,2013-02-03 03:00:00,
2013-02-02 22:05:00,29.4,15.3,30.01,North,0,0.0,0.0,55,-99.99,,,-99.99,PWS SA v1.10,2013-02-03 03:05:00,
2013-02-02 22:10:00,29.4,14.9,30.01,North,0,0.0,0.0,54,-99.99,,,-99.99,PWS SA v1.10,2013-02-03 03:10:00,
2013-02-02 22:15:00,29.4,14.8,30.01,North,0,0.0,0.0,54,-99.99,,,-99.99,PWS SA v1.10,2013-02-03 03:15:00,
2013-02-02 22:20:00,29.4,15.9,30.01,North,0,0.0,0.0,57,-99.99,,,-99.99,PWS SA v1.10,2013-02-03 03:20:00,
2013-02-02 22:25:00,29.5,15.8,30.00,North,0,0.0,0.0,57,-99.99,,,-99.99,PWS SA v1.10,2013-02-03 03:25:00,
2013-02-02 22:30:00,29.4,16.0,30.01,North,0,0.0,0.0,57,-99.99,,,-99.99,PWS SA v1.10,2013-02-03 03:30:00,
2013-02-02 22:35:00,29.4,15.4,30.00,North,0,0.0,0.0,56,-99.99,,,-99.99,PWS SA v1.10,2013-02-03 03:35:00,
2013-02-02 22:40:00,29.1,14.9,30.00,North,0,0.0,3.0,55,-99.99,,,-99.99,PWS SA v1.10,2013-02-03 03:40:00,
2013-02-02 22:45:00,29.2,15.1,30.00,North,0,0.0,3.0,55,-99.99,,,-99.99,PWS SA v1.10,2013-02-03 03:45:00,
2013-02-02 22:50:00,29.5,15.3,30.00,North,0,0.0,3.0,55,-99.99,,,-99.99,PWS SA v1.10,2013-02-03 03:50:00,
2013-02-02 23:00:00,29.4,16.0,30.00,SW,223,1.7,1.7,56,-99.99,,,-99.99,PWS SA v1.10,2013-02-03 04:00:00,
2013-02-02 23:05:00,29.6,15.6,30.00,WSW,244,1.7,1.7,56,-99.99,,,-99.99,PWS SA v1.10,2013-02-03 04:05:00,
2013-02-02 23:10:00,29.7,15.2,30.00,North,0,0.0,1.0,55,-99.99,,,-99.99,PWS SA v1.10,2013-02-03 04:10:00,
2013-02-02 23:15:00,29.4,15.7,30.00,SW,233,1.7,1.7,56,-99.99,,,-99.99,PWS SA v1.10,2013-02-03 04:15:00,
2013-02-02 23:25:00,28.8,14.7,30.00,West,273,1.7,8.0,54,-99.99,,,-99.99,PWS SA v1.10,2013-02-03 04:25:00,
2013-02-02 23:30:00,28.9,14.9,30.00,North,0,0.0,8.0,55,-99.99,,,-99.99,PWS SA v1.10,2013-02-03 04:30:00,
2013-02-02 23:40:00,28.5,14.6,30.00,West,265,3.4,5.0,55,-99.99,,,-99.99,PWS SA v1.10,2013-02-03 04:40:00,
2013-02-02 23:50:00,28.1,14.9,30.00,West,278,10.2,13.0,57,-99.99,,,-99.99,PWS SA v1.10,2013-02-03 04:50:00,